createdAt,value
2018-03-24T00:02:02.721Z,50.30
2018-03-24T00:04:30.195Z,50.30
2018-03-24T00:06:58.439Z,50.30
2018-03-24T00:09:26.674Z,50.30
2018-03-24T00:11:54.162Z,50.30
2018-03-24T00:14:21.625Z,50.20
2018-03-24T00:16:49.131Z,50.10
2018-03-24T00:19:17.372Z,50.00
2018-03-24T00:21:44.879Z,50.10
2018-03-24T00:24:12.385Z,49.90
2018-03-24T00:26:39.862Z,49.90
2018-03-24T00:29:07.345Z,49.90
2018-03-24T00:31:34.834Z,49.90
2018-03-24T00:34:02.324Z,49.90
2018-03-24T00:36:29.804Z,49.90
2018-03-24T00:38:57.298Z,50.00
2018-03-24T00:41:25.537Z,50.10
2018-03-24T00:43:53.033Z,50.10
2018-03-24T00:46:20.523Z,50.10
2018-03-24T00:48:48.782Z,50.20
2018-03-24T00:51:16.255Z,50.20
2018-03-24T00:53:43.762Z,50.20
2018-03-24T00:56:12.068Z,50.40
2018-03-24T00:58:39.561Z,50.40
2018-03-24T01:01:07.029Z,50.40
2018-03-24T01:03:34.520Z,50.50
2018-03-24T01:06:01.993Z,50.50
2018-03-24T01:08:29.505Z,50.60
2018-03-24T01:10:57.752Z,50.60
2018-03-24T01:13:25.225Z,50.60
2018-03-24T01:15:52.709Z,50.60
2018-03-24T01:18:20.194Z,50.50
2018-03-24T01:20:47.690Z,50.60
2018-03-24T01:23:15.169Z,50.60
2018-03-24T01:25:42.677Z,50.60
2018-03-24T01:28:10.149Z,50.70
2018-03-24T01:30:37.642Z,50.60
2018-03-24T01:33:05.105Z,50.60
2018-03-24T01:35:32.596Z,50.70
2018-03-24T01:38:00.832Z,50.80
2018-03-24T01:40:28.375Z,50.80
2018-03-24T01:42:56.627Z,51.70
2018-03-24T01:45:24.130Z,51.70
2018-03-24T01:47:52.356Z,51.70
2018-03-24T01:50:19.820Z,51.70
2018-03-24T01:52:47.301Z,51.70
2018-03-24T01:55:14.789Z,51.70
2018-03-24T01:57:42.330Z,51.80
2018-03-24T02:00:09.866Z,51.90
2018-03-24T02:02:37.375Z,52.00
2018-03-24T02:05:08.713Z,51.90
2018-03-24T02:07:36.263Z,52.00
2018-03-24T02:10:03.840Z,52.00
2018-03-24T02:12:31.273Z,51.90
2018-03-24T02:14:58.740Z,52.00
2018-03-24T02:17:26.251Z,52.00
2018-03-24T02:19:53.717Z,52.00
2018-03-24T02:22:21.193Z,52.10
2018-03-24T02:25:06.485Z,52.00
2018-03-24T02:27:33.964Z,52.00
2018-03-24T02:30:02.193Z,52.10
2018-03-24T02:32:29.670Z,52.10
2018-03-24T02:34:57.154Z,52.30
2018-03-24T02:37:24.637Z,52.40
2018-03-24T02:39:52.181Z,52.40
2018-03-24T02:42:19.664Z,52.50
2018-03-24T02:44:47.159Z,52.50
2018-03-24T02:47:14.642Z,52.60
2018-03-24T02:49:42.131Z,52.50
2018-03-24T02:52:10.440Z,53.00
2018-03-24T02:54:37.989Z,53.00
2018-03-24T02:57:06.218Z,53.20
2018-03-24T02:59:33.703Z,53.20
2018-03-24T03:02:01.191Z,53.50
2018-03-24T03:04:28.688Z,53.50
2018-03-24T03:06:56.920Z,53.20
2018-03-24T03:09:24.414Z,53.20
2018-03-24T03:11:51.930Z,53.10
2018-03-24T03:14:20.174Z,53.10
2018-03-24T03:16:47.639Z,53.10
2018-03-24T03:19:15.125Z,53.00
2018-03-24T03:21:53.213Z,53.00
2018-03-24T03:24:20.703Z,53.00
2018-03-24T03:26:48.164Z,52.90
2018-03-24T03:29:15.727Z,52.80
2018-03-24T03:31:43.193Z,52.80
2018-03-24T03:34:10.665Z,52.80
2018-03-24T03:36:38.143Z,52.80
2018-03-24T03:39:05.626Z,52.70
2018-03-24T03:41:33.094Z,52.70
2018-03-24T03:44:00.566Z,52.80
2018-03-24T03:46:28.045Z,52.80
2018-03-24T03:48:55.511Z,52.90
2018-03-24T03:51:23.042Z,52.90
2018-03-24T03:53:50.513Z,53.10
2018-03-24T03:56:17.993Z,53.20
2018-03-24T03:58:45.474Z,53.20
2018-03-24T04:01:12.986Z,53.20
2018-03-24T04:03:40.447Z,53.30
2018-03-24T04:06:07.935Z,53.40
2018-03-24T04:08:35.392Z,53.30
2018-03-24T04:11:02.879Z,53.50
2018-03-24T04:13:30.351Z,53.50
2018-03-24T04:15:57.833Z,53.50
2018-03-24T04:18:26.065Z,53.60
2018-03-24T04:20:53.545Z,53.60
2018-03-24T04:23:21.010Z,53.60
2018-03-24T04:25:48.505Z,54.40
2018-03-24T04:28:15.985Z,53.70
2018-03-24T04:30:43.506Z,53.70
2018-03-24T04:33:10.997Z,53.70
2018-03-24T04:35:38.471Z,53.70
2018-03-24T04:38:05.955Z,53.60
2018-03-24T04:40:33.412Z,53.70
2018-03-24T04:43:00.895Z,53.80
2018-03-24T04:45:28.365Z,53.80
2018-03-24T04:47:55.846Z,53.70
2018-03-24T04:50:23.300Z,53.90
2018-03-24T04:52:50.790Z,53.70
2018-03-24T04:55:18.281Z,53.70
2018-03-24T04:57:46.552Z,53.90
2018-03-24T05:00:14.018Z,53.70
2018-03-24T05:02:41.475Z,53.50
2018-03-24T05:05:09.729Z,53.50
2018-03-24T05:07:37.297Z,53.50
2018-03-24T05:10:05.229Z,53.40
2018-03-24T05:12:32.701Z,53.40
2018-03-24T05:15:00.190Z,53.40
2018-03-24T05:17:27.658Z,53.40
2018-03-24T05:19:55.146Z,53.30
2018-03-24T05:22:23.378Z,53.40
2018-03-24T05:24:50.869Z,53.40
2018-03-24T05:27:18.332Z,53.30
2018-03-24T05:29:45.814Z,53.50
2018-03-24T05:32:13.284Z,53.50
2018-03-24T05:34:41.526Z,53.60
2018-03-24T05:37:08.989Z,53.60
2018-03-24T05:39:37.238Z,53.70
2018-03-24T05:42:05.478Z,53.70
2018-03-24T05:44:32.954Z,53.70
2018-03-24T05:47:00.449Z,53.70
2018-03-24T05:49:27.929Z,53.70
2018-03-24T05:51:55.407Z,53.70
2018-03-24T05:54:22.897Z,53.70
2018-03-24T05:56:51.201Z,53.70
2018-03-24T05:59:19.428Z,53.90
2018-03-24T06:01:46.929Z,53.90
2018-03-24T06:04:14.399Z,54.00
2018-03-24T06:06:41.959Z,54.00
2018-03-24T06:09:09.432Z,54.00
2018-03-24T06:11:36.909Z,54.10
2018-03-24T06:14:04.383Z,54.10
2018-03-24T06:16:31.902Z,54.20
2018-03-24T06:19:00.126Z,54.50
2018-03-24T06:21:27.609Z,54.40
2018-03-24T06:23:55.192Z,54.40
2018-03-24T06:26:23.584Z,55.20
2018-03-24T06:28:51.050Z,54.80
2018-03-24T06:31:18.557Z,54.70
2018-03-24T06:33:46.053Z,54.90
2018-03-24T06:36:14.113Z,55.00
2018-03-24T06:38:41.583Z,55.30
2018-03-24T06:43:24.582Z,55.70
2018-03-24T06:45:52.065Z,56.90
2018-03-24T06:48:19.546Z,57.20
2018-03-24T06:50:47.014Z,57.50
2018-03-24T06:53:14.506Z,57.70
2018-03-24T06:55:41.978Z,57.90
2018-03-24T06:58:09.459Z,58.00
2018-03-24T07:00:36.958Z,58.10
2018-03-24T07:03:05.198Z,57.50
2018-03-24T07:05:32.722Z,57.40
2018-03-24T07:08:00.969Z,57.50
2018-03-24T07:10:28.442Z,57.40
2018-03-24T07:12:55.920Z,57.50
2018-03-24T07:15:23.400Z,57.60
2018-03-24T07:17:50.878Z,57.60
2018-03-24T07:20:19.104Z,57.70
2018-03-24T07:22:46.602Z,57.50
2018-03-24T07:25:14.104Z,57.40
2018-03-24T07:27:42.387Z,57.10
2018-03-24T07:30:10.625Z,57.60
2018-03-24T07:32:38.116Z,56.80
2018-03-24T07:35:05.600Z,56.80
2018-03-24T07:37:33.110Z,56.60
2018-03-24T07:40:00.577Z,56.50
2018-03-24T07:42:28.835Z,56.40
2018-03-24T07:44:56.314Z,56.20
2018-03-24T07:47:23.890Z,55.70
2018-03-24T07:49:51.385Z,55.30
2018-03-24T07:52:19.609Z,54.90
2018-03-24T07:54:47.254Z,54.60
2018-03-24T07:57:15.502Z,54.30
2018-03-24T07:59:45.821Z,54.10
2018-03-24T08:02:13.408Z,54.10
2018-03-24T08:04:41.789Z,54.00
2018-03-24T08:07:09.315Z,54.10
2018-03-24T08:09:37.664Z,54.10
2018-03-24T08:12:05.101Z,53.90
2018-03-24T08:14:32.608Z,54.00
2018-03-24T08:17:00.088Z,53.80
2018-03-24T08:19:27.574Z,53.50
2018-03-24T08:21:56.377Z,53.30
2018-03-24T08:24:26.396Z,52.90
2018-03-24T08:26:54.657Z,52.70
2018-03-24T08:29:23.724Z,52.10
2018-03-24T08:31:51.987Z,52.00
2018-03-24T08:34:19.462Z,51.70
2018-03-24T08:36:46.949Z,51.90
2018-03-24T08:39:15.256Z,51.20
2018-03-24T08:41:43.151Z,51.00
2018-03-24T08:44:10.700Z,50.70
2018-03-24T08:46:38.319Z,49.90
2018-03-24T08:49:05.832Z,49.40
2018-03-24T08:51:34.085Z,49.40
2018-03-24T08:54:01.550Z,49.10
2018-03-24T08:56:29.046Z,49.40
2018-03-24T08:58:56.525Z,49.50
2018-03-24T09:01:24.780Z,49.40
2018-03-24T09:03:52.245Z,49.10
2018-03-24T09:06:19.709Z,49.30
2018-03-24T09:08:47.229Z,49.20
2018-03-24T09:11:14.752Z,49.00
2018-03-24T09:13:42.266Z,48.40
2018-03-24T09:16:09.745Z,48.20
2018-03-24T09:18:38.018Z,48.30
2018-03-24T09:21:05.507Z,47.30
2018-03-24T09:23:33.829Z,46.50
2018-03-24T09:26:01.301Z,46.20
2018-03-24T09:28:28.864Z,45.90
2018-03-24T09:30:56.452Z,45.30
2018-03-24T09:33:23.986Z,44.70
2018-03-24T09:35:51.458Z,44.20
2018-03-24T09:38:19.041Z,43.40
2018-03-24T09:40:47.272Z,42.00
2018-03-24T09:43:14.750Z,41.70
2018-03-24T09:45:42.241Z,41.90
2018-03-24T09:48:09.722Z,41.70
2018-03-24T09:50:37.194Z,41.40
2018-03-24T09:53:04.658Z,40.80
2018-03-24T09:55:32.939Z,40.20
2018-03-24T09:58:00.425Z,39.90
2018-03-24T10:00:27.942Z,40.00
2018-03-24T10:02:55.443Z,40.00
2018-03-24T10:05:22.922Z,39.60
2018-03-24T10:07:50.398Z,39.20
2018-03-24T10:10:17.951Z,39.00
2018-03-24T10:12:45.425Z,38.60
2018-03-24T10:15:12.977Z,38.20
2018-03-24T10:17:40.459Z,37.80
2018-03-24T10:20:07.981Z,37.30
2018-03-24T10:22:47.392Z,37.00
2018-03-24T10:25:14.877Z,36.40
2018-03-24T10:27:42.341Z,35.30
2018-03-24T10:30:09.894Z,34.90
2018-03-24T10:32:37.367Z,34.50
2018-03-24T10:35:08.455Z,34.50
2018-03-24T10:37:41.681Z,34.50
2018-03-24T10:40:09.994Z,34.20
2018-03-24T10:42:37.490Z,33.90
2018-03-24T10:45:04.978Z,33.70
2018-03-24T10:47:32.450Z,33.20
2018-03-24T10:49:59.926Z,32.70
2018-03-24T10:52:27.448Z,31.80
2018-03-24T10:54:54.900Z,32.00
2018-03-24T10:57:22.397Z,31.80
2018-03-24T10:59:54.728Z,31.40
2018-03-24T11:02:22.385Z,31.00
2018-03-24T11:04:49.853Z,30.50
2018-03-24T11:07:17.348Z,30.10
2018-03-24T11:09:44.820Z,30.00
2018-03-24T11:12:12.318Z,29.80
2018-03-24T11:14:39.893Z,29.50
2018-03-24T11:17:08.208Z,29.30
2018-03-24T11:19:35.769Z,29.00
2018-03-24T11:22:04.134Z,28.90
2018-03-24T11:24:32.408Z,28.70
2018-03-24T11:26:59.943Z,28.50
2018-03-24T11:29:27.422Z,28.20
2018-03-24T11:31:54.928Z,27.70
2018-03-24T11:34:23.141Z,27.20
2018-03-24T11:36:50.621Z,26.10
2018-03-24T11:39:18.891Z,25.60
2018-03-24T11:41:46.376Z,25.50
2018-03-24T11:44:14.613Z,25.20
2018-03-24T11:46:42.093Z,25.00
2018-03-24T11:49:09.549Z,24.90
2018-03-24T11:51:37.032Z,25.20
2018-03-24T11:54:04.518Z,25.40
2018-03-24T11:56:31.997Z,25.40
2018-03-24T11:58:59.536Z,25.80
2018-03-24T12:01:27.736Z,25.50
2018-03-24T12:03:55.227Z,25.30
2018-03-24T12:06:22.708Z,24.80
2018-03-24T12:08:50.324Z,24.30
2018-03-24T12:11:17.802Z,24.20
2018-03-24T12:13:45.286Z,24.20
2018-03-24T12:16:12.759Z,24.70
2018-03-24T12:18:40.241Z,25.20
2018-03-24T12:21:07.709Z,25.50
2018-03-24T12:23:35.262Z,25.10
2018-03-24T12:26:02.842Z,24.40
2018-03-24T12:28:30.338Z,23.80
2018-03-24T12:30:57.811Z,23.80
2018-03-24T12:33:25.293Z,24.20
2018-03-24T12:35:52.774Z,24.50
2018-03-24T12:38:21.033Z,24.80
2018-03-24T12:40:48.498Z,24.20
2018-03-24T12:43:16.214Z,24.40
2018-03-24T12:45:43.678Z,25.10
2018-03-24T12:48:11.181Z,24.10
2018-03-24T12:50:38.682Z,23.60
2018-03-24T12:53:06.144Z,23.50
2018-03-24T12:55:33.646Z,23.50
2018-03-24T12:58:01.105Z,23.40
2018-03-24T13:00:28.679Z,23.10
2018-03-24T13:02:56.120Z,22.40
2018-03-24T13:05:23.619Z,22.20
2018-03-24T13:07:51.086Z,22.10
2018-03-24T13:10:18.628Z,22.50
2018-03-24T13:12:46.105Z,22.70
2018-03-24T13:15:13.689Z,22.50
2018-03-24T13:17:41.201Z,22.00
2018-03-24T13:20:08.715Z,21.50
2018-03-24T13:22:36.204Z,21.30
2018-03-24T13:25:03.694Z,21.50
2018-03-24T13:27:31.157Z,21.90
2018-03-24T13:29:59.405Z,21.70
2018-03-24T13:32:26.994Z,21.50
2018-03-24T13:34:54.533Z,21.50
2018-03-24T13:37:22.006Z,21.20
2018-03-24T13:39:50.226Z,20.30
2018-03-24T13:42:17.722Z,20.10
2018-03-24T13:44:45.189Z,20.00
2018-03-24T13:47:12.679Z,20.10
2018-03-24T13:49:40.152Z,20.30
2018-03-24T13:52:07.639Z,20.20
2018-03-24T13:54:35.106Z,19.80
2018-03-24T13:57:02.585Z,19.70
2018-03-24T13:59:30.819Z,19.00
2018-03-24T14:01:58.319Z,18.80
2018-03-24T14:04:25.819Z,18.70
2018-03-24T14:06:54.070Z,18.00
2018-03-24T14:09:21.543Z,17.90
2018-03-24T14:11:49.029Z,17.90
2018-03-24T14:14:16.500Z,18.30
2018-03-24T14:16:43.985Z,18.50
2018-03-24T14:19:11.466Z,18.70
2018-03-24T14:21:39.738Z,19.60
2018-03-24T14:24:07.981Z,19.90
2018-03-24T14:26:35.501Z,19.70
2018-03-24T14:29:02.995Z,20.20
2018-03-24T14:31:31.222Z,20.50
2018-03-24T14:33:58.708Z,20.40
2018-03-24T14:36:26.177Z,20.70
2018-03-24T14:38:53.673Z,20.40
2018-03-24T14:41:21.139Z,20.20
2018-03-24T14:43:48.737Z,20.10
2018-03-24T14:46:16.961Z,19.70
2018-03-24T14:48:44.455Z,19.50
2018-03-24T14:51:11.928Z,19.50
2018-03-24T14:53:39.458Z,19.50
2018-03-24T14:56:06.928Z,19.30
2018-03-24T14:58:34.419Z,19.00
2018-03-24T15:01:01.894Z,18.90
2018-03-24T15:03:30.201Z,18.80
2018-03-24T15:05:57.661Z,18.70
2018-03-24T15:08:25.146Z,18.70
2018-03-24T15:10:52.618Z,18.60
2018-03-24T15:13:20.099Z,18.50
2018-03-24T15:15:47.579Z,18.30
2018-03-24T15:18:15.075Z,17.90
2018-03-24T15:20:43.307Z,17.30
2018-03-24T15:23:10.766Z,17.20
2018-03-24T15:25:38.261Z,17.10
2018-03-24T15:28:05.725Z,17.00
2018-03-24T15:30:45.114Z,16.90
2018-03-24T15:33:24.486Z,16.90
2018-03-24T15:36:04.497Z,16.90
2018-03-24T15:38:32.769Z,17.00
2018-03-24T15:41:00.253Z,16.90
2018-03-24T15:43:27.763Z,17.00
2018-03-24T15:45:55.251Z,17.20
2018-03-24T15:48:23.498Z,17.80
2018-03-24T15:50:50.994Z,17.70
2018-03-24T15:53:19.577Z,18.10
2018-03-24T15:55:47.090Z,18.00
2018-03-24T15:58:14.595Z,18.20
2018-03-24T16:00:42.086Z,18.20
2018-03-24T16:03:09.551Z,18.40
2018-03-24T16:05:37.046Z,18.40
2018-03-24T16:08:04.502Z,18.30
2018-03-24T16:10:31.997Z,18.20
2018-03-24T16:13:00.228Z,18.10
2018-03-24T16:15:27.721Z,18.00
2018-03-24T16:17:55.182Z,18.30
2018-03-24T16:20:22.679Z,18.40
2018-03-24T16:22:50.154Z,18.50
2018-03-24T16:25:17.637Z,18.50
2018-03-24T16:27:45.948Z,18.40
2018-03-24T16:30:13.453Z,18.30
2018-03-24T16:32:40.932Z,18.50
2018-03-24T16:35:08.429Z,18.50
2018-03-24T16:37:35.900Z,18.60
2018-03-24T16:40:03.423Z,18.60
2018-03-24T16:42:30.961Z,18.70
2018-03-24T16:44:59.260Z,18.80
2018-03-24T16:47:27.501Z,18.70
2018-03-24T16:49:54.987Z,18.60
2018-03-24T16:52:22.458Z,18.70
2018-03-24T16:54:49.990Z,18.70
2018-03-24T16:57:17.469Z,18.80
2018-03-24T16:59:44.979Z,18.70
2018-03-24T17:02:12.554Z,18.80
2018-03-24T17:04:40.823Z,18.90
2018-03-24T17:07:08.331Z,18.80
2018-03-24T17:09:36.570Z,19.10
2018-03-24T17:12:04.057Z,19.10
2018-03-24T17:14:31.544Z,19.20
2018-03-24T17:16:59.056Z,19.20
2018-03-24T17:19:26.533Z,19.30
2018-03-24T17:21:54.025Z,19.30
2018-03-24T17:24:21.562Z,19.40
2018-03-24T17:26:49.126Z,19.50
2018-03-24T17:29:17.359Z,19.70
2018-03-24T17:31:44.852Z,19.70
2018-03-24T17:34:12.390Z,19.80
2018-03-24T17:36:39.914Z,19.90
2018-03-24T17:39:07.661Z,20.10
2018-03-24T17:41:35.153Z,20.30
2018-03-24T17:44:02.622Z,20.40
2018-03-24T17:46:30.114Z,20.50
2018-03-24T17:48:58.351Z,20.70
2018-03-24T17:51:25.850Z,20.70
2018-03-24T17:53:53.357Z,20.80
2018-03-24T17:56:20.838Z,21.00
2018-03-24T17:58:48.325Z,21.00
2018-03-24T18:01:15.803Z,21.10
2018-03-24T18:03:43.333Z,21.30
2018-03-24T18:06:11.686Z,21.60
2018-03-24T18:08:39.177Z,21.60
2018-03-24T18:11:06.649Z,21.70
2018-03-24T18:13:34.148Z,21.70
2018-03-24T18:16:02.389Z,21.90
2018-03-24T18:18:29.878Z,21.90
2018-03-24T18:20:57.367Z,22.00
2018-03-24T18:23:24.855Z,22.00
2018-03-24T18:25:53.089Z,22.10
2018-03-24T18:28:20.578Z,22.10
2018-03-24T18:30:48.043Z,22.20
2018-03-24T18:33:15.529Z,22.30
2018-03-24T18:35:43.783Z,22.90
2018-03-24T18:38:11.275Z,22.40
2018-03-24T18:40:38.917Z,22.40
2018-03-24T18:43:06.407Z,22.50
2018-03-24T18:45:33.879Z,22.60
2018-03-24T18:48:02.175Z,22.70
2018-03-24T18:50:29.637Z,22.40
2018-03-24T18:52:57.131Z,22.70
2018-03-24T18:55:24.631Z,22.80
2018-03-24T18:57:52.886Z,23.00
2018-03-24T19:00:20.425Z,23.00
2018-03-24T19:02:47.872Z,23.00
2018-03-24T19:05:15.342Z,23.10
2018-03-24T19:07:42.828Z,23.20
2018-03-24T19:10:10.376Z,23.30
2018-03-24T19:12:37.850Z,23.40
2018-03-24T19:15:06.158Z,23.60
2018-03-24T19:17:33.583Z,23.50
2018-03-24T19:20:01.089Z,23.60
2018-03-24T19:22:28.541Z,23.60
2018-03-24T19:24:56.030Z,23.70
2018-03-24T19:27:23.500Z,23.80
2018-03-24T19:29:51.000Z,23.70
2018-03-24T19:32:18.470Z,23.80
2018-03-24T19:34:45.968Z,23.90
2018-03-24T19:37:13.449Z,23.90
2018-03-24T19:39:40.953Z,24.00
2018-03-24T19:42:08.438Z,24.10
2018-03-24T19:44:35.925Z,24.10
2018-03-24T19:47:03.409Z,24.10
2018-03-24T19:49:30.939Z,24.20
2018-03-24T19:51:58.406Z,24.30
2018-03-24T19:54:25.894Z,24.30
2018-03-24T19:56:53.367Z,24.30
2018-03-24T19:59:21.061Z,24.40
2018-03-24T20:01:48.555Z,24.40
2018-03-24T20:04:16.047Z,24.50
2018-03-24T20:06:43.514Z,24.50
2018-03-24T20:09:11.055Z,24.60
2018-03-24T20:11:38.533Z,24.60
2018-03-24T20:14:06.014Z,24.70
2018-03-24T20:16:33.501Z,24.70
2018-03-24T20:19:00.957Z,24.70
2018-03-24T20:21:28.437Z,24.80
2018-03-24T20:23:55.914Z,24.90
2018-03-24T20:26:23.421Z,24.90
2018-03-24T20:28:51.042Z,25.00
2018-03-24T20:31:18.557Z,25.00
2018-03-24T20:33:46.026Z,25.10
2018-03-24T20:36:13.513Z,25.10
2018-03-24T20:38:40.990Z,25.20
2018-03-24T20:41:08.497Z,25.20
2018-03-24T20:43:36.029Z,25.30
2018-03-24T20:46:03.526Z,25.30
2018-03-24T20:48:30.987Z,25.40
2018-03-24T20:50:58.621Z,25.40
2018-03-24T20:53:26.869Z,25.50
2018-03-24T20:55:54.341Z,25.50
2018-03-24T20:58:21.849Z,25.50
2018-03-24T21:00:50.091Z,25.70
2018-03-24T21:03:18.429Z,25.70
2018-03-24T21:05:46.666Z,25.80
2018-03-24T21:08:14.169Z,25.80
2018-03-24T21:10:41.642Z,25.80
2018-03-24T21:13:09.194Z,25.90
2018-03-24T21:15:36.625Z,25.90
2018-03-24T21:18:04.138Z,26.00
2018-03-24T21:20:31.611Z,25.90
2018-03-24T21:22:59.104Z,26.10
2018-03-24T21:25:26.588Z,26.10
2018-03-24T21:27:54.839Z,26.20
2018-03-24T21:30:22.322Z,26.20
2018-03-24T21:32:50.614Z,26.20
2018-03-24T21:35:18.098Z,26.30
2018-03-24T21:37:45.617Z,26.30
2018-03-24T21:40:13.140Z,26.50
2018-03-24T21:42:40.798Z,26.40
2018-03-24T21:45:08.285Z,26.40
2018-03-24T21:47:35.758Z,26.50
2018-03-24T21:50:03.243Z,26.50
2018-03-24T21:52:31.481Z,26.60
2018-03-24T21:54:58.961Z,26.60
2018-03-24T21:57:26.490Z,26.60
2018-03-24T21:59:54.363Z,26.70
2018-03-24T22:02:22.598Z,26.70
2018-03-24T22:04:50.119Z,26.80
2018-03-24T22:07:18.614Z,26.80
2018-03-24T22:09:46.857Z,27.30
2018-03-24T22:12:14.506Z,26.80
2018-03-24T22:14:41.993Z,26.90
2018-03-24T22:17:10.233Z,27.00
2018-03-24T22:19:38.505Z,27.00
2018-03-24T22:22:06.015Z,27.50
2018-03-24T22:24:33.521Z,27.00
2018-03-24T22:27:01.056Z,27.10
2018-03-24T22:29:28.542Z,27.10
2018-03-24T22:31:56.131Z,27.10
2018-03-24T22:34:23.622Z,27.20
2018-03-24T22:36:51.117Z,27.30
2018-03-24T22:39:18.689Z,27.30
2018-03-24T22:41:46.221Z,27.30
2018-03-24T22:44:14.517Z,27.40
2018-03-24T22:46:42.008Z,27.40
2018-03-24T22:49:09.479Z,27.50
2018-03-24T22:51:36.968Z,27.50
2018-03-24T22:54:04.435Z,27.60
2018-03-24T22:56:31.940Z,27.70
2018-03-24T22:58:59.418Z,27.60
2018-03-24T23:01:26.937Z,27.70
2018-03-24T23:03:54.436Z,27.70
2018-03-24T23:06:22.661Z,27.80
2018-03-24T23:08:50.222Z,27.80
2018-03-24T23:11:17.765Z,27.80
2018-03-24T23:13:46.017Z,27.90
2018-03-24T23:16:13.493Z,28.00
2018-03-24T23:18:40.997Z,27.90
2018-03-24T23:21:08.471Z,27.90
2018-03-24T23:23:36.716Z,28.00
2018-03-24T23:26:04.177Z,28.10
2018-03-24T23:28:31.669Z,28.10
2018-03-24T23:30:59.137Z,28.10
2018-03-24T23:33:26.803Z,28.10
2018-03-24T23:35:54.293Z,28.20
2018-03-24T23:38:21.773Z,28.20
2018-03-24T23:40:49.233Z,28.30
2018-03-24T23:43:16.794Z,28.30
2018-03-24T23:45:44.320Z,28.30
2018-03-24T23:48:11.793Z,28.30
2018-03-24T23:50:39.295Z,28.40
2018-03-24T23:53:06.780Z,28.40
2018-03-24T23:55:34.269Z,28.50
2018-03-24T23:58:01.736Z,28.50
